Аэропорт: Жуляны. Киев

ICAO: UKKK

METAR:
2021-07-28 13:00:00
UKKK 281300Z 27006MPS 230V300 CAVOK 30/18 Q1013 R26/150060 NOSIG
METAR:
2021-07-28 11:01:00
TAF UKKK 281101Z 2812/2912 28005G10MPS 9999 BKN030 TX30/2813Z TN19/2902Z TEMPO 2812/2818 VRB08G18MPS 1000 TSRAGR SQ BKN006 BKN025CB BECMG 2818/2820 24003G08MPS TEMPO 2820/2906 VRB01MPS 2000 BR BKN007 TEMPO 2909/2912 VRB08G18MPS 1000 TSRAGR SQ BKN006 BKN025CB